Time;durP1;ratioP1;P1;durP2;ratioP2;P2;SDS_P1;SDS_P2;PMS_P1;PMS_P2;Temp;Humidity;BMP_temperature;BMP_pressure;BME280_temperature;BME280_humidity;BME280_pressure;Samples;Min_cycle;Max_cycle;Signal;HPM_P1;HPM_P2
2023/03/29 00:02:28;;;;;;;12.18;3.70;;;;;;;4.87;97.47;101447.00;4903831;28;20036;-76
2023/03/29 00:04:55;;;;;;;9.52;4.25;;;;;;;4.88;97.54;101440.94;4908237;28;20044;-76
2023/03/29 00:07:22;;;;;;;11.25;4.25;;;;;;;4.98;97.40;101446.28;4911427;28;20038;-76
2023/03/29 00:09:48;;;;;;;7.72;3.50;;;;;;;4.90;96.89;101438.25;4929399;28;20039;-75
2023/03/29 00:12:14;;;;;;;7.90;3.60;;;;;;;4.85;97.69;101452.22;4932556;28;20078;-76
2023/03/29 00:14:39;;;;;;;10.20;3.80;;;;;;;4.85;98.35;101451.41;4904616;28;20055;-75
2023/03/29 00:17:05;;;;;;;11.43;3.83;;;;;;;4.87;98.05;101441.84;4915358;28;20091;-75
2023/03/29 00:19:34;;;;;;;16.42;3.90;;;;;;;4.94;97.44;101443.09;4906123;28;20028;-76
2023/03/29 00:22:01;;;;;;;11.75;3.92;;;;;;;4.88;97.10;101440.94;4922934;28;20118;-75
2023/03/29 00:24:26;;;;;;;9.10;3.97;;;;;;;4.77;98.17;101446.78;4908682;28;20083;-76
2023/03/29 00:26:52;;;;;;;14.35;4.32;;;;;;;4.93;97.78;101427.75;4912739;28;20403;-76
2023/03/29 00:29:17;;;;;;;9.00;4.28;;;;;;;4.90;97.36;101431.38;4966658;28;20461;-74
2023/03/29 00:31:52;;;;;;;11.60;3.95;;;;;;;4.97;97.42;101424.91;4915441;28;20034;-75
2023/03/29 00:34:19;;;;;;;13.13;5.00;;;;;;;4.94;97.38;101437.13;4919497;28;20060;-74
2023/03/29 00:36:45;;;;;;;9.50;4.32;;;;;;;4.92;97.23;101433.84;4920333;28;20135;-73
2023/03/29 00:39:10;;;;;;;15.73;4.50;;;;;;;4.99;97.24;101430.75;4921421;28;20042;-74
2023/03/29 00:41:36;;;;;;;14.02;5.38;;;;;;;4.90;97.78;101433.09;4924893;28;20039;-76
2023/03/29 00:44:03;;;;;;;16.73;5.50;;;;;;;4.90;97.83;101421.09;4901177;28;20040;-75
2023/03/29 00:46:29;;;;;;;11.13;4.50;;;;;;;4.88;98.03;101428.91;4910218;28;20036;-75
2023/03/29 00:49:07;;;;;;;9.23;4.30;;;;;;;4.90;97.81;101427.97;4908313;28;20052;-76
2023/03/29 00:51:35;;;;;;;14.57;4.45;;;;;;;4.91;97.75;101424.47;4907579;28;20094;-76
2023/03/29 00:54:04;;;;;;;13.30;4.63;;;;;;;4.95;97.61;101419.00;4906899;28;20108;-74
2023/03/29 00:56:34;;;;;;;10.13;4.60;;;;;;;4.90;97.86;101415.94;4934036;28;20460;-76
2023/03/29 00:59:25;;;;;;;11.68;4.97;;;;;;;4.96;97.28;101409.56;4907666;28;20118;-75
2023/03/29 01:01:56;;;;;;;9.43;4.07;;;;;;;5.04;97.29;101407.28;4907507;28;20040;-75
2023/03/29 01:04:31;;;;;;;11.80;4.32;;;;;;;5.01;96.93;101398.06;4991968;28;20036;-75
2023/03/29 01:07:20;;;;;;;14.38;4.53;;;;;;;4.90;97.17;101400.53;4910838;28;20036;-76
2023/03/29 01:09:52;;;;;;;13.40;4.97;;;;;;;4.96;97.25;101409.56;4925072;28;20032;-74
2023/03/29 01:12:26;;;;;;;11.00;5.32;;;;;;;4.87;97.55;101405.88;4937330;28;20540;-75
2023/03/29 01:15:07;;;;;;;8.23;4.47;;;;;;;4.97;97.92;101396.63;4931908;28;20036;-76
2023/03/29 01:17:34;;;;;;;9.45;4.65;;;;;;;4.94;98.57;101398.56;4922336;28;20034;-76
2023/03/29 01:20:23;;;;;;;11.00;4.38;;;;;;;5.04;98.03;101384.16;4907588;28;20032;-75
2023/03/29 01:23:01;;;;;;;10.73;4.90;;;;;;;4.97;98.59;101382.94;4911633;28;20059;-76
2023/03/29 01:26:11;;;;;;;13.82;5.13;;;;;;;4.84;99.83;101388.91;4915325;28;20135;-76
2023/03/29 01:28:43;;;;;;;15.43;5.72;;;;;;;4.91;100.00;101383.34;4833437;28;20060;-76
2023/03/29 01:31:15;;;;;;;11.65;4.82;;;;;;;4.87;99.65;101385.31;4928492;28;20481;-74
2023/03/29 01:33:42;;;;;;;;;;;;;;;4.83;100.00;101392.41;4924177;28;20067;-74
2023/03/29 01:36:22;;;;;;;10.85;5.32;;;;;;;4.93;100.00;101384.88;4921494;28;19973;-74
2023/03/29 01:38:58;;;;;;;10.85;4.88;;;;;;;4.88;100.00;101381.81;4923287;28;20058;-76
2023/03/29 01:41:34;;;;;;;12.00;5.15;;;;;;;4.96;100.00;101378.72;4921099;28;20050;-74
2023/03/29 01:44:16;;;;;;;10.13;4.40;;;;;;;4.87;99.44;101368.13;4920573;28;20032;-73
2023/03/29 01:46:55;;;;;;;10.85;4.65;;;;;;;4.91;99.47;101370.50;4903150;28;20102;-73
2023/03/29 01:49:27;;;;;;;8.65;4.15;;;;;;;4.90;98.91;101364.56;4907559;28;20063;-73
2023/03/29 01:52:06;;;;;;;11.27;4.78;;;;;;;4.83;98.87;101371.03;4933247;28;20040;-74
2023/03/29 01:54:38;;;;;;;12.23;4.85;;;;;;;4.80;99.79;101373.81;4910735;28;20036;-74
2023/03/29 01:57:09;;;;;;;7.95;4.55;;;;;;;4.92;99.94;101360.13;4987538;28;20406;-74
2023/03/29 01:59:38;;;;;;;15.57;5.40;;;;;;;4.93;99.52;101364.31;4908222;28;20048;-73
2023/03/29 02:02:10;;;;;;;9.00;5.28;;;;;;;5.03;99.05;101359.41;4926352;28;20101;-74
2023/03/29 02:04:44;;;;;;;8.18;4.68;;;;;;;4.99;98.81;101350.22;4902799;28;20042;-73
2023/03/29 02:07:12;;;;;;;13.73;5.07;;;;;;;4.96;98.41;101353.84;4925344;28;20031;-74
2023/03/29 02:09:39;;;;;;;12.85;5.13;;;;;;;4.97;99.02;101347.78;4912779;28;20032;-74
2023/03/29 02:12:06;;;;;;;8.80;4.30;;;;;;;4.97;98.94;101357.22;4908950;28;20107;-76
2023/03/29 02:14:32;;;;;;;9.80;4.35;;;;;;;4.94;99.34;101348.00;4921896;28;20044;-74
2023/03/29 02:17:17;;;;;;;9.75;4.13;;;;;;;5.02;99.50;101348.28;4919879;28;20032;-74
2023/03/29 02:19:48;;;;;;;10.15;4.38;;;;;;;5.00;98.96;101339.84;4924595;28;20103;-76
2023/03/29 02:22:21;;;;;;;10.73;4.85;;;;;;;4.90;99.99;101340.56;4920061;28;20086;-74
2023/03/29 02:24:50;;;;;;;8.45;4.35;;;;;;;4.87;99.90;101344.19;4909583;28;20036;-74
2023/03/29 02:27:15;;;;;;;11.93;4.40;;;;;;;5.03;100.00;101336.25;4986799;28;20047;-74
2023/03/29 02:29:41;;;;;;;6.25;3.90;;;;;;;4.96;99.57;101338.41;4923207;28;20033;-74
2023/03/29 02:32:21;;;;;;;8.60;4.05;;;;;;;4.87;100.00;101339.06;4911136;28;20027;-74
2023/03/29 02:34:57;;;;;;;8.05;3.88;;;;;;;4.90;100.00;101343.16;4923360;28;20052;-76
2023/03/29 02:37:29;;;;;;;8.13;3.90;;;;;;;5.02;100.00;101334.59;4911794;28;20036;-74
2023/03/29 02:39:55;;;;;;;9.25;3.78;;;;;;;5.00;100.00;101333.88;4973685;28;20271;-74
2023/03/29 02:42:23;;;;;;;9.15;3.47;;;;;;;4.98;99.69;101328.03;4913713;28;20044;-74
2023/03/29 02:44:52;;;;;;;9.65;3.67;;;;;;;4.93;99.81;101330.09;4913178;28;20040;-74
2023/03/29 02:47:24;;;;;;;5.85;3.40;;;;;;;4.88;100.00;101333.00;4912691;28;20036;-74
2023/03/29 02:49:49;;;;;;;7.90;3.53;;;;;;;4.88;100.00;101326.09;4942160;28;20037;-74
2023/03/29 02:52:21;;;;;;;8.40;3.40;;;;;;;4.95;100.00;101313.63;4916004;28;20033;-74
2023/03/29 02:54:50;;;;;;;6.10;3.65;;;;;;;4.97;100.00;101318.66;4935996;28;20729;-74
2023/03/29 02:57:15;;;;;;;6.40;3.20;;;;;;;5.12;99.41;101312.44;4919094;28;20553;-74
2023/03/29 02:59:43;;;;;;;7.47;3.63;;;;;;;5.19;98.95;101315.44;4925956;28;20167;-73
2023/03/29 03:02:10;;;;;;;5.22;3.30;;;;;;;5.12;97.95;101317.59;4922076;28;20621;-74
2023/03/29 03:04:36;;;;;;;7.60;3.53;;;;;;;5.07;98.58;101314.56;4919579;28;20032;-74
2023/03/29 03:07:04;;;;;;;8.82;3.65;;;;;;;5.16;98.87;101319.03;4924991;28;20401;-76
2023/03/29 03:09:29;;;;;;;8.90;4.20;;;;;;;5.11;98.88;101321.13;4909458;28;20516;-76
2023/03/29 03:11:55;;;;;;;10.30;3.83;;;;;;;5.07;99.92;101319.69;4908110;28;20028;-74
2023/03/29 03:14:23;;;;;;;8.27;3.60;;;;;;;5.21;99.54;101316.94;4988267;28;20036;-74
2023/03/29 03:16:49;;;;;;;13.57;4.82;;;;;;;5.25;98.67;101312.41;4977585;28;20579;-74
2023/03/29 03:19:15;;;;;;;7.10;3.63;;;;;;;5.15;98.67;101314.00;4912895;28;20059;-74
2023/03/29 03:21:42;;;;;;;11.38;3.40;;;;;;;5.16;99.39;101305.34;4907322;28;20106;-73
2023/03/29 03:24:07;;;;;;;8.48;3.22;;;;;;;5.08;99.38;101300.75;4988430;28;20039;-73
2023/03/29 03:26:34;;;;;;;9.88;3.85;;;;;;;5.07;99.83;101307.66;4916984;28;20039;-76
2023/03/29 03:29:00;;;;;;;5.93;3.83;;;;;;;5.11;100.00;101300.53;4920261;28;20090;-74
2023/03/29 03:32:02;;;;;;;9.68;3.90;;;;;;;5.17;100.00;101312.16;4908572;28;20036;-74
2023/03/29 03:34:47;;;;;;;7.43;3.75;;;;;;;5.13;100.00;101305.59;4913019;28;20090;-74
2023/03/29 03:37:12;;;;;;;8.10;3.83;;;;;;;5.17;100.00;101307.00;4913088;28;20040;-74
2023/03/29 03:39:38;;;;;;;8.90;3.60;;;;;;;5.22;100.00;101304.94;4907991;28;20036;-74
2023/03/29 03:42:06;;;;;;;7.72;3.75;;;;;;;5.20;100.00;101301.66;4907551;28;20185;-74
2023/03/29 03:44:33;;;;;;;8.27;4.47;;;;;;;5.18;100.00;101304.31;4905786;28;20516;-74
2023/03/29 03:47:21;;;;;;;7.60;3.67;;;;;;;5.15;100.00;101291.69;4924315;28;20032;-74
2023/03/29 03:49:47;;;;;;;10.65;3.97;;;;;;;5.23;100.00;101289.38;4921988;28;20078;-74
2023/03/29 03:52:15;;;;;;;7.22;3.97;;;;;;;5.32;100.00;101271.66;4909106;28;20028;-76
2023/03/29 03:54:40;;;;;;;9.88;3.70;;;;;;;5.27;100.00;101282.25;4914686;28;20044;-74
2023/03/29 03:57:37;;;;;;;7.85;3.88;;;;;;;5.26;100.00;101273.75;4919791;28;20035;-74
2023/03/29 04:00:17;;;;;;;9.60;3.75;;;;;;;5.20;100.00;101269.03;4919590;28;20028;-76
2023/03/29 04:02:45;;;;;;;9.35;3.80;;;;;;;5.11;100.00;101274.84;4925105;28;20036;-77
2023/03/29 04:05:11;;;;;;;8.10;3.97;;;;;;;5.09;100.00;101276.69;4910347;28;20040;-76
2023/03/29 04:07:39;;;;;;;9.50;4.65;;;;;;;5.24;100.00;101277.38;4896443;28;20036;-76
2023/03/29 04:10:24;;;;;;;8.27;4.57;;;;;;;5.09;100.00;101268.97;4922678;28;20032;-74
2023/03/29 04:13:01;;;;;;;8.38;4.15;;;;;;;5.28;100.00;101275.41;4993349;28;20512;-74
2023/03/29 04:15:27;;;;;;;10.10;4.05;;;;;;;5.23;100.00;101266.22;4907775;28;20043;-74
2023/03/29 04:18:02;;;;;;;11.38;4.47;;;;;;;5.24;100.00;101269.66;4990625;28;20039;-74
2023/03/29 04:20:34;;;;;;;7.53;4.13;;;;;;;5.19;100.00;101274.28;4945073;28;20055;-76
2023/03/29 04:23:00;;;;;;;13.57;4.90;;;;;;;5.12;100.00;101275.66;4924261;28;20039;-74
2023/03/29 04:25:28;;;;;;;9.25;4.00;;;;;;;5.07;100.00;101269.09;4928074;28;20505;-73
2023/03/29 04:28:12;;;;;;;8.43;4.45;;;;;;;5.15;100.00;101278.00;4919002;28;20047;-74
2023/03/29 04:30:50;;;;;;;11.43;4.50;;;;;;;5.15;100.00;101267.72;4914124;28;20040;-76
2023/03/29 04:33:45;;;;;;;12.70;4.68;;;;;;;5.14;100.00;101269.50;4907890;28;20050;-76
2023/03/29 04:36:12;;;;;;;14.63;4.93;;;;;;;5.18;100.00;101264.91;4907619;28;20039;-74
2023/03/29 04:38:40;;;;;;;9.73;4.70;;;;;;;5.29;100.00;101266.72;4932214;28;20039;-74
2023/03/29 04:41:08;;;;;;;9.27;4.95;;;;;;;5.24;100.00;101260.16;4935137;28;20032;-74
2023/03/29 04:43:45;;;;;;;13.02;4.90;;;;;;;5.24;100.00;101261.94;4908848;28;20055;-74
2023/03/29 04:46:20;;;;;;;8.25;4.40;;;;;;;5.37;100.00;101261.84;4924305;28;20032;-74
2023/03/29 04:49:05;;;;;;;10.65;4.40;;;;;;;5.24;100.00;101260.16;4923199;28;20039;-76
2023/03/29 04:51:34;;;;;;;8.82;4.07;;;;;;;5.23;100.00;101255.94;4926549;28;20425;-74
2023/03/29 04:54:00;;;;;;;9.07;4.38;;;;;;;5.23;100.00;101257.69;4942405;28;20131;-75
2023/03/29 04:56:26;;;;;;;9.30;4.22;;;;;;;5.24;100.00;101257.59;4985414;28;20020;-74
2023/03/29 04:59:14;;;;;;;8.02;3.80;;;;;;;5.34;100.00;101255.19;4912764;28;20041;-76
2023/03/29 05:01:40;;;;;;;8.73;3.92;;;;;;;5.52;100.00;101255.63;4912136;28;20028;-76
2023/03/29 05:04:06;;;;;;;14.00;4.30;;;;;;;5.37;100.00;101249.84;4985854;28;20039;-75
2023/03/29 05:06:37;;;;;;;14.32;4.82;;;;;;;5.35;100.00;101246.56;4989544;28;20063;-74
2023/03/29 05:09:06;;;;;;;8.60;4.57;;;;;;;5.49;100.00;101257.59;4907616;28;20040;-75
2023/03/29 05:11:42;;;;;;;9.25;3.67;;;;;;;5.60;100.00;101258.44;4920481;28;20114;-74
2023/03/29 05:14:08;;;;;;;10.85;4.38;;;;;;;5.50;100.00;101249.75;4909185;28;20087;-73
2023/03/29 05:16:34;;;;;;;10.73;4.32;;;;;;;5.50;100.00;101254.91;4914644;28;20494;-74
2023/03/29 05:19:00;;;;;;;31.08;14.88;;;;;;;5.42;100.00;101249.47;4923278;28;20032;-74
2023/03/29 05:21:27;;;;;;;13.45;5.85;;;;;;;5.58;100.00;101255.16;4923487;28;20383;-74
2023/03/29 05:23:54;;;;;;;12.48;5.03;;;;;;;5.49;100.00;101252.44;4909461;28;20039;-74
2023/03/29 05:26:38;;;;;;;14.82;5.13;;;;;;;5.46;100.00;101251.75;4910109;28;20106;-76
2023/03/29 05:29:04;;;;;;;7.75;4.97;;;;;;;5.47;100.00;101245.66;4918834;28;20123;-77
2023/03/29 05:31:31;;;;;;;16.23;4.70;;;;;;;5.53;100.00;101243.56;4910033;28;20035;-75
2023/03/29 05:33:57;;;;;;;12.63;4.57;;;;;;;5.50;100.00;101239.47;4903651;28;20131;-76
2023/03/29 05:36:23;;;;;;;12.82;4.93;;;;;;;5.59;100.00;101230.25;4925592;28;20036;-76
2023/03/29 05:38:49;;;;;;;16.25;5.93;;;;;;;5.63;100.00;101229.06;4904179;28;20043;-74
2023/03/29 05:41:17;;;;;;;9.70;4.10;;;;;;;5.63;100.00;101221.34;4908388;28;20409;-75
2023/03/29 05:44:01;;;;;;;15.40;5.45;;;;;;;5.69;100.00;101222.66;4907297;28;20119;-76
2023/03/29 05:46:27;;;;;;;9.98;4.13;;;;;;;5.67;100.00;101220.22;4906604;28;20037;-76
2023/03/29 05:48:56;;;;;;;8.77;4.50;;;;;;;5.68;100.00;101226.19;4988303;28;20409;-74
2023/03/29 05:51:32;;;;;;;11.23;4.03;;;;;;;5.71;100.00;101221.63;4923736;28;20403;-77
2023/03/29 05:53:58;;;;;;;9.75;4.60;;;;;;;5.70;100.00;101222.56;4889748;28;20127;-74
2023/03/29 05:56:23;;;;;;;12.70;4.45;;;;;;;5.70;100.00;101227.69;4902555;28;20812;-74
2023/03/29 05:58:53;;;;;;;12.07;4.60;;;;;;;5.73;100.00;101230.06;4908795;28;20180;-74
2023/03/29 06:01:18;;;;;;;9.88;5.15;;;;;;;5.67;100.00;101235.66;4906809;28;20170;-75
2023/03/29 06:03:58;;;;;;;9.23;4.00;;;;;;;5.66;100.00;101234.00;4988369;28;20502;-74
2023/03/29 06:06:30;;;;;;;9.40;3.97;;;;;;;5.80;100.00;101236.41;4909620;28;20870;-74
2023/03/29 06:08:57;;;;;;;10.55;4.30;;;;;;;5.82;100.00;101234.53;4937847;28;20029;-74
2023/03/29 06:11:33;;;;;;;11.45;4.25;;;;;;;5.76;100.00;101231.56;4915562;28;20036;-74
2023/03/29 06:14:08;;;;;;;13.70;4.55;;;;;;;5.88;100.00;101229.81;4915173;28;20059;-74
2023/03/29 06:16:39;;;;;;;19.02;10.15;;;;;;;5.93;100.00;101231.13;4916979;28;20032;-74
2023/03/29 06:19:06;;;;;;;11.95;5.63;;;;;;;5.97;100.00;101227.44;4907210;28;20032;-73
2023/03/29 06:21:33;;;;;;;11.80;4.82;;;;;;;5.92;100.00;101233.84;4906202;28;20494;-76
2023/03/29 06:23:59;;;;;;;12.63;5.40;;;;;;;5.97;100.00;101226.59;4927815;28;20040;-76
2023/03/29 06:26:27;;;;;;;18.15;7.65;;;;;;;6.01;100.00;101233.19;4911916;28;20028;-74
2023/03/29 06:28:53;;;;;;;17.10;6.57;;;;;;;6.03;100.00;101228.72;4908784;28;20040;-74
2023/03/29 06:31:19;;;;;;;10.02;4.85;;;;;;;6.10;100.00;101235.03;4925297;28;20032;-74
2023/03/29 06:33:48;;;;;;;10.60;4.60;;;;;;;6.04;100.00;101236.31;4924443;28;20047;-74
2023/03/29 06:36:26;;;;;;;14.40;6.00;;;;;;;6.09;100.00;101235.19;4923741;28;20035;-74
2023/03/29 06:38:52;;;;;;;14.98;5.90;;;;;;;6.13;100.00;101236.56;4913648;28;20036;-75
2023/03/29 06:41:35;;;;;;;13.77;4.57;;;;;;;6.11;100.00;101228.97;4922277;28;20052;-74
2023/03/29 06:44:24;;;;;;;10.82;4.60;;;;;;;6.05;100.00;101237.16;4906085;28;20098;-75
2023/03/29 06:46:59;;;;;;;12.25;4.32;;;;;;;6.10;100.00;101229.88;4975799;28;20028;-73
2023/03/29 06:49:25;;;;;;;8.23;4.50;;;;;;;6.12;100.00;101234.91;4920870;28;20054;-74
2023/03/29 06:52:04;;;;;;;23.58;5.22;;;;;;;6.31;100.00;101242.06;4913530;28;20540;-74
2023/03/29 06:54:29;;;;;;;8.10;4.95;;;;;;;6.31;100.00;101237.75;4909004;28;20056;-74
2023/03/29 06:57:00;;;;;;;12.00;4.45;;;;;;;6.27;100.00;101240.66;4994122;28;20036;-76
2023/03/29 06:59:27;;;;;;;11.00;4.40;;;;;;;6.36;100.00;101245.13;4906893;28;20560;-76
2023/03/29 07:02:16;;;;;;;10.70;4.47;;;;;;;6.31;100.00;101242.91;4909179;28;20126;-74
2023/03/29 07:04:49;;;;;;;11.85;4.38;;;;;;;6.27;100.00;101246.63;4916495;28;20082;-74
2023/03/29 07:07:26;;;;;;;15.23;8.25;;;;;;;6.31;100.00;101245.47;4991444;28;20581;-74
2023/03/29 07:10:01;;;;;;;12.80;6.22;;;;;;;6.45;99.74;101247.00;4918104;28;20047;-73
2023/03/29 07:13:00;;;;;;;14.77;6.15;;;;;;;6.54;99.39;101254.00;4928917;28;20066;-74
2023/03/29 07:15:28;;;;;;;10.07;4.10;;;;;;;6.62;99.45;101243.09;4919868;28;20036;-75
2023/03/29 07:18:14;;;;;;;9.25;4.35;;;;;;;6.68;98.57;101255.50;4913988;28;20059;-74
2023/03/29 07:20:41;;;;;;;11.60;4.43;;;;;;;6.60;98.11;101245.81;4909537;28;20043;-74
2023/03/29 07:23:09;;;;;;;8.80;4.50;;;;;;;6.61;98.98;101244.03;4914587;28;20047;-74
2023/03/29 07:25:35;;;;;;;7.47;4.25;;;;;;;6.74;99.69;101242.16;4926102;28;20071;-76
2023/03/29 07:28:02;;;;;;;17.00;4.30;;;;;;;6.81;99.24;101243.31;4908186;28;20035;-76
2023/03/29 07:30:29;;;;;;;11.63;4.53;;;;;;;6.90;99.54;101251.28;4916671;28;20051;-76
2023/03/29 07:33:07;;;;;;;11.30;4.47;;;;;;;6.93;99.28;101251.00;4921114;28;20044;-75
2023/03/29 07:35:38;;;;;;;9.73;4.45;;;;;;;6.97;100.00;101247.28;4908551;28;20036;-76
2023/03/29 07:38:07;;;;;;;6.97;3.92;;;;;;;7.04;99.10;101250.97;4905701;28;20037;-76
2023/03/29 07:40:33;;;;;;;9.90;3.85;;;;;;;7.08;99.27;101247.22;4921467;28;20102;-76
2023/03/29 07:42:58;;;;;;;8.70;3.88;;;;;;;7.08;100.00;101251.56;4924096;28;20621;-76
2023/03/29 07:45:28;;;;;;;8.95;3.67;;;;;;;7.17;100.00;101245.66;4908791;28;20028;-77
2023/03/29 07:48:00;;;;;;;16.70;3.95;;;;;;;7.24;99.38;101248.59;4923487;28;20063;-75
2023/03/29 07:50:33;;;;;;;;;;;;;;;7.35;99.74;101257.09;4910158;28;20099;-76
2023/03/29 07:53:01;;;;;;;9.70;4.30;;;;;;;7.44;99.29;101262.44;4921936;28;19919;-74
2023/03/29 07:55:28;;;;;;;11.52;4.07;;;;;;;7.59;99.24;101259.44;4992069;28;20543;-76
2023/03/29 07:57:59;;;;;;;7.97;4.28;;;;;;;7.58;99.41;101257.81;4969987;28;20036;-76
2023/03/29 08:00:25;;;;;;;12.07;4.90;;;;;;;7.67;99.06;101256.25;4922796;28;20043;-76
2023/03/29 08:03:11;;;;;;;8.10;3.25;;;;;;;7.69;99.20;101256.13;4909162;28;20051;-76
2023/03/29 08:05:38;;;;;;;12.25;3.78;;;;;;;7.79;99.23;101259.56;4903859;28;20513;-76
2023/03/29 08:08:08;;;;;;;10.23;3.85;;;;;;;7.92;99.31;101257.59;4912047;28;20043;-76
2023/03/29 08:10:50;;;;;;;11.23;4.55;;;;;;;8.01;99.93;101255.22;4990175;28;20044;-76
2023/03/29 08:13:25;;;;;;;7.40;3.67;;;;;;;8.05;99.72;101260.00;4906206;28;20111;-76
2023/03/29 08:16:10;;;;;;;6.85;3.42;;;;;;;7.93;99.87;101267.00;4923846;28;20190;-76
2023/03/29 08:18:41;;;;;;;11.27;4.13;;;;;;;8.15;100.00;101270.38;4924278;28;20086;-76
2023/03/29 08:21:07;;;;;;;10.30;4.40;;;;;;;8.10;100.00;101262.19;4921660;28;20565;-76
2023/03/29 08:23:33;;;;;;;11.82;4.18;;;;;;;8.23;100.00;101269.72;4925251;28;20056;-76
2023/03/29 08:26:07;;;;;;;11.10;4.13;;;;;;;8.29;99.19;101264.88;4908827;28;20032;-76
2023/03/29 08:28:33;;;;;;;7.75;3.38;;;;;;;8.30;98.74;101261.31;4892257;28;20043;-76
2023/03/29 08:30:59;;;;;;;9.13;4.65;;;;;;;8.28;99.75;101254.66;4910960;28;20502;-76
2023/03/29 08:33:25;;;;;;;11.55;3.70;;;;;;;8.32;100.00;101254.25;4923061;28;20042;-76
2023/03/29 08:36:00;;;;;;;10.98;4.10;;;;;;;8.35;100.00;101253.19;4991096;28;20027;-77
2023/03/29 08:38:29;;;;;;;14.85;3.63;;;;;;;8.49;99.50;101252.03;4935173;28;20293;-76
2023/03/29 08:40:55;;;;;;;5.47;3.13;;;;;;;8.44;99.82;101255.03;4927219;28;20529;-76
2023/03/29 08:43:54;;;;;;;11.30;3.92;;;;;;;8.45;99.75;101254.06;4988747;28;20032;-76
2023/03/29 08:46:47;;;;;;;16.30;4.72;;;;;;;8.57;99.54;101245.28;4910733;28;20512;-77
2023/03/29 08:49:25;;;;;;;13.10;4.32;;;;;;;8.73;98.29;101236.19;4926633;28;20048;-76
2023/03/29 08:52:04;;;;;;;11.05;3.10;;;;;;;8.80;97.67;101246.81;4911009;28;20036;-76
2023/03/29 08:54:44;;;;;;;8.07;3.50;;;;;;;8.89;97.90;101244.25;4921578;28;20040;-76
2023/03/29 08:57:50;;;;;;;9.57;3.65;;;;;;;8.99;97.44;101243.47;4908123;28;20501;-76
2023/03/29 09:00:47;;;;;;;13.68;4.03;;;;;;;8.97;98.38;101246.19;4915948;28;20409;-77
2023/03/29 09:03:28;;;;;;;8.32;3.85;;;;;;;9.07;98.32;101246.19;4907369;28;20047;-76
2023/03/29 09:06:05;;;;;;;9.45;3.70;;;;;;;9.15;97.92;101252.31;4991678;28;20055;-77
2023/03/29 09:08:37;;;;;;;12.20;3.58;;;;;;;9.31;96.72;101246.59;4898710;28;20083;-74
2023/03/29 09:11:16;;;;;;;11.48;3.95;;;;;;;9.49;95.61;101251.91;4910227;28;20039;-74
2023/03/29 09:14:21;;;;;;;17.90;4.00;;;;;;;9.58;94.45;101242.47;4974253;28;20040;-74
2023/03/29 09:17:15;;;;;;;12.05;3.78;;;;;;;9.54;94.46;101239.34;4922396;28;20048;-74
2023/03/29 09:19:53;;;;;;;9.15;3.80;;;;;;;9.69;93.45;101239.72;4925423;28;20449;-74
2023/03/29 09:22:34;;;;;;;9.75;3.28;;;;;;;9.81;93.24;101232.63;4910117;28;20036;-74
2023/03/29 09:25:22;;;;;;;16.50;3.80;;;;;;;9.92;92.11;101224.69;4929885;28;20406;-74
2023/03/29 09:28:00;;;;;;;13.88;4.20;;;;;;;9.99;92.85;101237.09;4911252;28;20462;-75
2023/03/29 09:30:40;;;;;;;11.25;3.45;;;;;;;10.33;87.40;101219.25;4911583;28;20058;-73
2023/03/29 09:33:25;;;;;;;7.18;2.63;;;;;;;10.29;87.14;101215.28;4930361;28;20381;-74
2023/03/29 09:36:43;;;;;;;18.50;2.90;;;;;;;10.26;87.01;101218.94;4914784;28;20055;-74
2023/03/29 09:39:13;;;;;;;10.35;3.03;;;;;;;10.50;84.91;101220.25;4906387;28;20051;-74
2023/03/29 09:42:16;;;;;;;9.13;2.78;;;;;;;10.66;84.25;101225.63;4925190;28;20485;-75
2023/03/29 09:44:49;;;;;;;8.32;2.58;;;;;;;10.85;83.00;101216.06;4922251;29;20522;-74
2023/03/29 09:47:31;;;;;;;6.95;2.35;;;;;;;10.78;82.22;101213.25;4910123;28;20044;-75
2023/03/29 09:50:15;;;;;;;10.15;3.33;;;;;;;10.83;82.74;101215.38;4930199;28;20064;-75
2023/03/29 09:52:41;;;;;;;7.78;3.05;;;;;;;10.96;81.39;101212.44;4919209;28;20032;-74
2023/03/29 09:55:17;;;;;;;5.90;2.58;;;;;;;11.04;81.61;101212.53;4918441;28;20541;-74
2023/03/29 09:57:52;;;;;;;9.10;2.70;;;;;;;11.05;81.93;101201.16;4925395;28;20036;-75
2023/03/29 10:00:19;;;;;;;8.40;2.40;;;;;;;11.28;80.67;101198.91;4919967;28;20166;-74
2023/03/29 10:02:52;;;;;;;8.00;2.70;;;;;;;11.39;81.65;101203.84;4908658;28;20090;-75
2023/03/29 10:05:24;;;;;;;12.23;2.78;;;;;;;11.58;80.01;101215.03;4929587;28;20707;-75
2023/03/29 10:07:53;;;;;;;6.53;2.50;;;;;;;11.67;80.00;101225.31;4933659;28;20026;-75
2023/03/29 10:10:36;;;;;;;8.65;2.78;;;;;;;11.84;79.97;101220.22;4907601;28;20072;-75
2023/03/29 10:13:19;;;;;;;10.80;2.85;;;;;;;12.00;77.65;101211.75;4926754;28;20032;-75
2023/03/29 10:16:09;;;;;;;9.48;3.20;;;;;;;12.02;78.39;101215.00;4970863;28;20044;-76
2023/03/29 10:18:41;;;;;;;9.25;3.10;;;;;;;11.95;78.22;101203.59;4931878;28;20068;-76
2023/03/29 10:21:11;;;;;;;7.07;2.40;;;;;;;12.06;78.06;101203.31;4932385;28;20024;-75
2023/03/29 10:23:37;;;;;;;7.03;3.38;;;;;;;12.34;77.53;101206.50;4994636;28;20404;-75
2023/03/29 10:26:06;;;;;;;8.02;3.08;;;;;;;12.28;78.20;101207.13;4924685;28;20119;-74
2023/03/29 10:28:35;;;;;;;11.50;2.90;;;;;;;12.35;76.25;101205.53;4920320;28;20032;-75
2023/03/29 10:31:02;;;;;;;7.45;2.17;;;;;;;12.46;76.84;101197.44;4920042;28;20058;-75
2023/03/29 10:33:33;;;;;;;7.90;2.58;;;;;;;12.91;75.64;101195.41;4915286;28;20032;-76
2023/03/29 10:36:01;;;;;;;12.38;2.83;;;;;;;13.04;74.66;101184.53;4984365;28;20554;-76
2023/03/29 10:38:28;;;;;;;5.97;2.50;;;;;;;13.45;73.42;101187.13;4932574;28;20048;-75
2023/03/29 10:41:03;;;;;;;7.07;2.53;;;;;;;13.63;71.20;101171.28;4909201;28;20032;-76
2023/03/29 10:43:42;;;;;;;4.32;1.80;;;;;;;13.75;70.74;101171.72;4901122;28;20090;-76
2023/03/29 10:46:22;;;;;;;6.50;2.28;;;;;;;13.74;70.08;101176.13;4910370;28;20050;-75
2023/03/29 10:48:50;;;;;;;5.75;2.38;;;;;;;13.76;67.71;101175.97;4912011;28;20036;-75
2023/03/29 10:51:18;;;;;;;10.95;2.72;;;;;;;13.94;68.87;101175.78;4933856;28;20040;-76
2023/03/29 10:53:44;;;;;;;10.63;3.30;;;;;;;13.78;69.09;101172.22;4929753;28;20119;-78
2023/03/29 10:57:00;;;;;;;6.95;2.58;;;;;;;13.75;69.11;101175.19;4991272;28;20090;-75
2023/03/29 10:59:28;;;;;;;7.30;2.50;;;;;;;13.63;70.26;101169.47;4875133;28;20045;-76
2023/03/29 11:02:45;;;;;;;6.72;2.45;;;;;;;13.52;71.45;101179.44;4907763;28;20417;-76
2023/03/29 11:05:17;;;;;;;7.47;2.17;;;;;;;13.54;72.39;101180.09;4926586;28;20039;-76
2023/03/29 11:07:58;;;;;;;6.80;2.70;;;;;;;13.55;72.36;101166.91;4913018;28;20040;-75
2023/03/29 11:10:57;;;;;;;8.57;2.50;;;;;;;13.84;72.61;101160.31;4924380;28;20040;-75
2023/03/29 11:13:37;;;;;;;10.60;2.80;;;;;;;13.71;72.39;101173.06;4929618;28;20114;-76
2023/03/29 11:16:34;;;;;;;8.93;2.90;;;;;;;13.78;72.27;101159.19;4922024;28;20122;-76
2023/03/29 11:19:32;;;;;;;9.30;3.08;;;;;;;13.72;72.02;101165.06;4992866;28;20044;-76
2023/03/29 11:22:07;;;;;;;7.25;2.50;;;;;;;13.51;73.04;101162.22;4926509;28;20039;-76
2023/03/29 11:24:48;;;;;;;8.82;2.70;;;;;;;13.42;73.50;101162.22;4914155;28;20040;-76
2023/03/29 11:27:26;;;;;;;8.07;2.33;;;;;;;13.48;73.41;101159.94;4921025;28;20040;-75
2023/03/29 11:29:58;;;;;;;4.03;1.85;;;;;;;13.57;74.31;101151.91;4918798;28;20032;-75
2023/03/29 11:32:50;;;;;;;10.25;2.65;;;;;;;13.77;73.94;101147.16;4914487;28;20175;-75
2023/03/29 11:35:58;;;;;;;7.72;2.60;;;;;;;13.81;73.17;101147.63;4912082;28;20044;-75
2023/03/29 11:38:38;;;;;;;7.20;2.50;;;;;;;13.86;72.47;101142.69;4904900;28;20044;-76
2023/03/29 11:41:17;;;;;;;4.80;2.38;;;;;;;13.89;73.62;101144.16;4926806;28;20506;-76
2023/03/29 11:43:48;;;;;;;7.00;2.38;;;;;;;14.07;72.83;101136.09;4906742;28;20050;-76
2023/03/29 11:46:20;;;;;;;7.50;2.85;;;;;;;14.34;73.08;101129.59;4921708;28;20062;-75
2023/03/29 11:48:59;;;;;;;6.45;2.60;;;;;;;14.37;72.87;101130.06;4907944;28;20048;-76
2023/03/29 11:51:34;;;;;;;10.38;2.80;;;;;;;14.44;71.48;101138.00;4922671;28;20132;-76
2023/03/29 11:54:44;;;;;;;8.10;2.20;;;;;;;14.24;72.88;101129.81;4907304;28;20036;-76
2023/03/29 11:57:27;;;;;;;10.75;5.22;;;;;;;14.37;72.28;101131.84;4947298;28;20043;-76